This is the latest recevied weather packets stored in our database for station/object NE1CU. If no packets are shown the sender has not sent any weather packets the latest 10 day(s).
| Time | Temp. | Humidity | Pressure | Rain* | Wind** | Luminosity | Snow |
|---|---|---|---|---|---|---|---|
| 1777503680 | 12.78° C | 67% | 1010.8 hPa | 0 mm | - | 43 W/m² | - |
| 1777503376 | 12.78° C | 66% | 1011 hPa | 0 mm | - | 56 W/m² | - |
| 1777503072 | 13.33° C | 66% | 1011.4 hPa | 0 mm | - | 67 W/m² | - |
| 1777502770 | 13.33° C | 66% | 1011.3 hPa | 0 mm | - | 69 W/m² | - |
| 1777502467 | 13.33° C | 66% | 1011.2 hPa | 0 mm | - | 77 W/m² | - |
| 1777502164 | 13.33° C | 66% | 1011.3 hPa | 0 mm | - | 82 W/m² | - |
| 1777501861 | 12.78° C | 66% | 1011.2 hPa | 0 mm | - | 84 W/m² | - |
| 1777501558 | 12.78° C | 67% | 1011.3 hPa | 0 mm | - | 78 W/m² | - |
| 1777501255 | 12.78° C | 66% | 1011.4 hPa | 0 mm | - | 75 W/m² | - |
| 1777500953 | 13.33° C | 66% | 1011.5 hPa | 0 mm | - | 80 W/m² | - |
| 1777500650 | 13.89° C | 64% | 1011.8 hPa | 0 mm | - | 85 W/m² | - |
| 1777500347 | 13.89° C | 64% | 1011.7 hPa | 0 mm | - | 93 W/m² | - |
| 1777500043 | 13.89° C | 63% | 1011.6 hPa | 0 mm | - | 100 W/m² | - |
| 1777499739 | 13.89° C | 63% | 1011.7 hPa | 0 mm | - | 106 W/m² | - |
| 1777499436 | 13.89° C | 63% | 1011.7 hPa | 0 mm | - | 122 W/m² | - |
| 1777499135 | 13.89° C | 63% | 1011.8 hPa | 0 mm | - | 133 W/m² | - |
| 1777498831 | 13.89° C | 62% | 1011.6 hPa | 0 mm | - | 137 W/m² | - |
| 1777498527 | 13.89° C | 62% | 1011.7 hPa | 0 mm | - | 138 W/m² | - |
| 1777498223 | 14.44° C | 61% | 1012.1 hPa | 0 mm | - | 143 W/m² | - |
| 1777497923 | 14.44° C | 63% | 1012.2 hPa | 0 mm | - | 171 W/m² | - |
| 1777497618 | 14.44° C | 62% | 1012.3 hPa | 0 mm | - | 200 W/m² | - |
| 1777497315 | 14.44° C | 63% | 1012.2 hPa | 0 mm | - | 217 W/m² | - |
| 1777497010 | 14.44° C | 62% | 1012.3 hPa | 0 mm | - | 222 W/m² | - |
| 1777496708 | 13.89° C | 64% | 1012.1 hPa | 0 mm | - | 179 W/m² | - |
| 1777496403 | 14.44° C | 64% | 1012.4 hPa | 0 mm | - | 165 W/m² | - |
* Rain latest hour (hover to see other rain measurements)
** Current wind speed in m/s (hover to see current wind gust speed)